This is the latest recevied weather packets stored in our database for station/object F4MLU-13. If no packets are shown the sender has not sent any weather packets the latest 10 day(s).
| Time | Temp. | Humidity | Pressure | Rain* | Wind** | Luminosity | Snow |
|---|---|---|---|---|---|---|---|
| 1777608659 | 13.89° C | 99% | - | 0 mm | - | - | - |
| 1777608058 | 13.89° C | 99% | - | 0 mm | - | - | - |
| 1777603279 | 14.44° C | 98% | - | 0 mm | - | - | - |
| 1777599039 | 14.44° C | 98% | - | 0 mm | - | - | - |
| 1777597239 | 14.44° C | 98% | - | 0 mm | - | - | - |
| 1777591259 | 14.44° C | 99% | - | 0 mm | - | - | - |
| 1777588239 | 14.44° C | 99% | - | 0 mm | - | - | - |
| 1777587639 | 14.44° C | 99% | - | 0 mm | - | - | - |
| 1777584060 | 14.44° C | 98% | - | 0 mm | - | - | - |
| 1777581040 | 15° C | 98% | - | 0 mm | - | - | - |
| 1777571440 | 17.22° C | 93% | - | 0 mm | - | - | - |
| 1777567840 | 18.89° C | 86% | - | 0 mm | - | - | - |
| 1777564260 | 17.78° C | 90% | - | 0 mm | - | - | - |
| 1777563040 | 17.22° C | 90% | - | 0 mm | - | - | - |
| 1777561840 | 17.22° C | 89% | - | 0 mm | - | - | - |
| 1777559441 | 19.44° C | 81% | - | 0 mm | - | - | - |
| 1777550441 | 18.33° C | 80% | - | 0 mm | - | - | - |
| 1777549240 | 19.44° C | 76% | - | 0 mm | - | - | - |
| 1777545641 | 20.56° C | 73% | - | 0 mm | - | - | - |
| 1777540841 | 20.56° C | 76% | - | 0 mm | - | - | - |
| 1777536041 | 20° C | 80% | - | 0 mm | - | - | - |
| 1777535441 | 20° C | 83% | - | 0 mm | - | - | - |
| 1777534841 | 19.44° C | 84% | - | 0 mm | - | - | - |
| 1777530641 | 14.44° C | 99% | - | 0 mm | - | - | - |
| 1777530041 | 14.44° C | 99% | - | 0 mm | - | - | - |
* Rain latest hour (hover to see other rain measurements)
** Current wind speed in m/s (hover to see current wind gust speed)